createdAt,value
2019-02-04T00:01:26.467Z,10.50
2019-02-04T00:03:55.989Z,9.40
2019-02-04T00:06:25.433Z,9.07
2019-02-04T00:08:54.749Z,9.80
2019-02-04T00:11:24.117Z,8.17
2019-02-04T00:13:53.401Z,11.47
2019-02-04T00:16:22.712Z,9.97
2019-02-04T00:18:52.067Z,10.13
2019-02-04T00:21:21.406Z,9.67
2019-02-04T00:23:50.682Z,10.17
2019-02-04T00:26:19.963Z,12.00
2019-02-04T00:28:49.333Z,9.60
2019-02-04T00:31:19.026Z,12.37
2019-02-04T00:33:48.481Z,11.40
2019-02-04T00:36:17.829Z,13.20
2019-02-04T00:38:47.311Z,10.43
2019-02-04T00:41:16.684Z,11.60
2019-02-04T00:43:45.967Z,11.23
2019-02-04T00:46:15.443Z,12.87
2019-02-04T00:48:44.818Z,9.53
2019-02-04T00:51:14.168Z,12.40
2019-02-04T00:53:43.547Z,11.63
2019-02-04T00:56:12.888Z,12.40
2019-02-04T00:58:42.189Z,14.37
2019-02-04T01:01:11.940Z,14.00
2019-02-04T01:03:41.548Z,12.77
2019-02-04T01:06:10.918Z,14.47
2019-02-04T01:08:40.624Z,12.50
2019-02-04T01:11:10.106Z,15.27
2019-02-04T01:13:39.637Z,14.17
2019-02-04T01:16:08.939Z,11.10
2019-02-04T01:18:38.436Z,12.73
2019-02-04T01:21:07.874Z,13.37
2019-02-04T01:23:37.583Z,15.27
2019-02-04T01:26:07.052Z,12.87
2019-02-04T01:28:36.798Z,13.87
2019-02-04T01:31:06.047Z,16.00
2019-02-04T01:33:35.419Z,15.37
2019-02-04T01:36:04.950Z,12.53
2019-02-04T01:38:34.379Z,16.10
2019-02-04T01:41:04.047Z,13.50
2019-02-04T01:43:33.525Z,16.60
2019-02-04T01:46:02.869Z,16.60
2019-02-04T01:48:32.190Z,13.63
2019-02-04T01:51:01.739Z,15.50
2019-02-04T01:53:31.051Z,15.23
2019-02-04T01:56:00.496Z,16.20
2019-02-04T01:58:29.817Z,15.20
2019-02-04T02:00:59.124Z,12.77
2019-02-04T02:03:28.404Z,13.50
2019-02-04T02:05:57.767Z,14.27
2019-02-04T02:08:27.091Z,13.13
2019-02-04T02:10:57.168Z,14.10
2019-02-04T02:13:26.773Z,13.50
2019-02-04T02:15:56.488Z,14.60
2019-02-04T02:18:25.834Z,15.63
2019-02-04T02:20:55.146Z,15.60
2019-02-04T02:23:24.406Z,15.50
2019-02-04T02:25:54.045Z,14.23
2019-02-04T02:28:23.662Z,14.70
2019-02-04T02:30:52.863Z,15.90
2019-02-04T02:33:22.220Z,15.97
2019-02-04T02:35:51.574Z,14.80
2019-02-04T02:38:20.902Z,13.97
2019-02-04T02:40:50.550Z,14.40
2019-02-04T02:43:19.860Z,14.13
2019-02-04T02:45:49.040Z,16.77
2019-02-04T02:48:18.627Z,18.30
2019-02-04T02:50:47.856Z,22.60
2019-02-04T02:53:17.173Z,20.80
2019-02-04T02:55:46.412Z,19.63
2019-02-04T02:58:15.718Z,17.50
2019-02-04T03:00:45.032Z,18.50
2019-02-04T03:03:14.417Z,18.57
2019-02-04T03:05:43.674Z,17.47
2019-02-04T03:08:13.271Z,18.13
2019-02-04T03:10:42.497Z,15.07
2019-02-04T03:13:11.733Z,18.87
2019-02-04T03:15:41.030Z,17.17
2019-02-04T03:18:10.209Z,16.77
2019-02-04T03:20:39.434Z,16.67
2019-02-04T03:23:08.940Z,17.67
2019-02-04T03:25:38.261Z,16.17
2019-02-04T03:28:07.572Z,17.23
2019-02-04T03:30:36.730Z,18.00
2019-02-04T03:33:06.108Z,18.87
2019-02-04T03:35:35.396Z,18.73
2019-02-04T03:38:04.727Z,19.50
2019-02-04T03:40:34.240Z,17.30
2019-02-04T03:43:03.609Z,19.33
2019-02-04T03:45:32.882Z,15.67
2019-02-04T03:48:07.096Z,19.77
2019-02-04T03:50:33.790Z,19.27
2019-02-04T03:53:03.043Z,20.33
2019-02-04T03:55:32.430Z,19.90
2019-02-04T03:58:02.191Z,18.00
2019-02-04T04:00:34.192Z,17.57
2019-02-04T04:03:03.408Z,16.57
2019-02-04T04:05:32.692Z,14.10
2019-02-04T04:08:01.919Z,17.50
2019-02-04T04:10:31.288Z,14.60
2019-02-04T04:13:00.550Z,18.60
2019-02-04T04:15:29.856Z,16.60
2019-02-04T04:17:59.510Z,18.40
2019-02-04T04:20:28.773Z,17.40
2019-02-04T04:22:58.225Z,17.37
2019-02-04T04:25:30.918Z,20.07
2019-02-04T04:28:00.383Z,17.13
2019-02-04T04:30:29.922Z,19.50
2019-02-04T04:33:00.329Z,18.00
2019-02-04T04:35:29.683Z,21.67
2019-02-04T04:37:58.994Z,20.50
2019-02-04T04:40:28.739Z,19.27
2019-02-04T04:42:58.117Z,18.47
2019-02-04T04:45:27.664Z,20.40
2019-02-04T04:47:56.871Z,18.93
2019-02-04T04:50:26.192Z,19.07
2019-02-04T04:52:56.697Z,21.60
2019-02-04T04:55:28.778Z,18.63
2019-02-04T04:57:58.498Z,19.63
2019-02-04T05:00:29.898Z,19.80
2019-02-04T05:02:59.314Z,23.07
2019-02-04T05:05:28.824Z,20.17
2019-02-04T05:07:58.199Z,21.10
2019-02-04T05:10:27.427Z,21.50
2019-02-04T05:12:56.783Z,21.20
2019-02-04T05:15:27.251Z,21.63
2019-02-04T05:17:56.887Z,21.53
2019-02-04T05:20:26.106Z,20.40
2019-02-04T05:22:55.679Z,22.97
2019-02-04T05:25:25.827Z,19.43
2019-02-04T05:27:55.513Z,26.33
2019-02-04T05:30:25.600Z,23.70
2019-02-04T05:32:54.932Z,25.60
2019-02-04T05:35:24.380Z,19.83
2019-02-04T05:37:53.729Z,24.13
2019-02-04T05:40:23.010Z,24.47
2019-02-04T05:42:52.730Z,24.30
2019-02-04T05:45:22.563Z,26.10
2019-02-04T05:47:51.993Z,23.47
2019-02-04T05:50:21.688Z,26.37
2019-02-04T05:52:51.951Z,24.90
2019-02-04T05:55:23.194Z,23.27
2019-02-04T05:57:52.425Z,27.73
2019-02-04T06:00:29.147Z,29.80
2019-02-04T06:02:58.557Z,27.43
2019-02-04T06:05:27.896Z,28.60
2019-02-04T06:07:57.103Z,26.77
2019-02-04T06:10:26.536Z,28.03
2019-02-04T06:12:56.427Z,28.80
2019-02-04T06:15:26.154Z,27.90
2019-02-04T06:17:55.821Z,25.23
2019-02-04T06:20:25.663Z,26.77
2019-02-04T06:22:55.785Z,25.20
2019-02-04T06:25:25.083Z,29.53
2019-02-04T06:27:54.349Z,26.00
2019-02-04T06:30:23.736Z,25.87
2019-02-04T06:32:54.087Z,24.63
2019-02-04T06:35:24.226Z,28.97
2019-02-04T06:37:53.736Z,29.10
2019-02-04T06:40:23.142Z,30.63
2019-02-04T06:42:52.466Z,26.33
2019-02-04T06:45:27.456Z,24.33
2019-02-04T06:47:56.773Z,25.90
2019-02-04T06:50:26.531Z,27.10
2019-02-04T06:52:55.923Z,28.70
2019-02-04T06:55:30.399Z,28.63
2019-02-04T06:57:59.692Z,27.20
2019-02-04T07:00:28.955Z,27.50
2019-02-04T07:02:59.485Z,24.87
2019-02-04T07:05:29.185Z,30.40
2019-02-04T07:07:58.790Z,29.87
2019-02-04T07:10:28.373Z,29.17
2019-02-04T07:12:57.758Z,27.00
2019-02-04T07:15:27.080Z,29.90
2019-02-04T07:18:01.582Z,29.77
2019-02-04T07:20:28.862Z,30.03
2019-02-04T07:22:58.615Z,27.70
2019-02-04T07:25:27.980Z,31.67
2019-02-04T07:27:57.589Z,27.10
2019-02-04T07:30:27.521Z,27.67
2019-02-04T07:32:58.061Z,27.53
2019-02-04T07:35:27.844Z,29.80
2019-02-04T07:37:57.503Z,26.70
2019-02-04T07:40:28.841Z,28.60
2019-02-04T07:42:59.002Z,31.20
2019-02-04T07:45:28.528Z,27.30
2019-02-04T07:47:58.255Z,26.60
2019-02-04T07:50:27.665Z,29.37
2019-02-04T07:52:57.394Z,28.00
2019-02-04T07:55:28.032Z,25.90
2019-02-04T07:57:57.746Z,26.60
2019-02-04T08:00:30.205Z,30.57
2019-02-04T08:02:59.916Z,24.03
2019-02-04T08:05:29.576Z,25.73
2019-02-04T08:07:58.896Z,26.80
2019-02-04T08:10:28.597Z,28.37
2019-02-04T08:13:01.451Z,27.80
2019-02-04T08:15:35.355Z,22.80
2019-02-04T08:18:05.156Z,24.50
2019-02-04T08:20:34.461Z,24.37
2019-02-04T08:23:04.242Z,22.77
2019-02-04T08:25:33.920Z,24.50
2019-02-04T08:28:03.207Z,22.40
2019-02-04T08:30:34.330Z,23.43
2019-02-04T08:33:03.782Z,23.67
2019-02-04T08:35:33.292Z,23.40
2019-02-04T08:38:02.749Z,17.77
2019-02-04T08:40:32.116Z,20.60
2019-02-04T08:43:01.546Z,25.00
2019-02-04T08:45:31.180Z,23.93
2019-02-04T08:48:00.581Z,23.03
2019-02-04T08:50:30.146Z,22.80
2019-02-04T08:52:59.471Z,20.57
2019-02-04T08:55:28.977Z,21.80
2019-02-04T08:57:58.308Z,25.80
2019-02-04T09:00:27.804Z,24.30
2019-02-04T09:02:57.930Z,22.67
2019-02-04T09:05:27.328Z,22.50
2019-02-04T09:07:56.811Z,25.70
2019-02-04T09:10:31.631Z,22.67
2019-02-04T09:13:01.431Z,25.13
2019-02-04T09:15:30.732Z,21.90
2019-02-04T09:18:00.867Z,19.30
2019-02-04T09:20:30.148Z,23.37
2019-02-04T09:22:59.527Z,23.20
2019-02-04T09:25:28.993Z,24.10
2019-02-04T09:27:58.600Z,20.97
2019-02-04T09:30:28.485Z,23.47
2019-02-04T09:32:59.561Z,21.17
2019-02-04T09:35:28.957Z,23.27
2019-02-04T09:38:03.588Z,22.40
2019-02-04T09:40:36.202Z,24.00
2019-02-04T09:43:05.643Z,22.77
2019-02-04T09:45:36.285Z,22.60
2019-02-04T09:48:08.719Z,23.70
2019-02-04T09:50:42.599Z,24.33
2019-02-04T09:53:12.341Z,22.53
2019-02-04T09:55:46.072Z,23.70
2019-02-04T09:58:16.375Z,21.87
2019-02-04T10:00:45.797Z,21.03
2019-02-04T10:03:16.177Z,22.47
2019-02-04T10:05:45.983Z,20.73
2019-02-04T10:08:15.517Z,21.60
2019-02-04T10:10:45.298Z,22.27
2019-02-04T10:13:22.200Z,20.93
2019-02-04T10:15:51.775Z,20.30
2019-02-04T10:18:30.246Z,21.30
2019-02-04T10:21:01.402Z,19.63
2019-02-04T10:23:32.701Z,19.63
2019-02-04T10:26:03.804Z,18.90
2019-02-04T10:28:33.252Z,21.13
2019-02-04T10:31:18.035Z,16.47
2019-02-04T10:34:12.295Z,17.53
2019-02-04T10:36:44.477Z,16.73
2019-02-04T10:39:15.681Z,17.83
2019-02-04T10:41:47.199Z,18.13
2019-02-04T10:44:16.394Z,14.90
2019-02-04T10:46:45.909Z,15.73
2019-02-04T10:49:34.810Z,17.37
2019-02-04T10:52:08.108Z,14.47
2019-02-04T10:54:37.461Z,15.87
2019-02-04T10:57:10.815Z,15.57
2019-02-04T10:59:55.389Z,15.50
2019-02-04T11:02:26.304Z,14.27
2019-02-04T11:05:46.478Z,14.30
2019-02-04T11:08:23.392Z,14.60
2019-02-04T11:10:09.721Z,13.03
2019-02-04T11:12:42.104Z,12.37
2019-02-04T11:15:14.863Z,12.00
2019-02-04T11:17:50.230Z,12.43
2019-02-04T11:20:19.067Z,12.90
2019-02-04T11:22:48.344Z,9.87
2019-02-04T11:25:19.413Z,11.10
2019-02-04T11:27:49.141Z,12.90
2019-02-04T11:30:51.046Z,11.07
2019-02-04T11:33:20.653Z,10.27
2019-02-04T11:35:50.435Z,12.40
2019-02-04T11:38:20.403Z,11.47
2019-02-04T11:40:49.791Z,11.00
2019-02-04T11:43:19.056Z,11.70
2019-02-04T11:45:48.668Z,10.93
2019-02-04T11:48:18.700Z,11.13
2019-02-04T11:50:47.990Z,11.73
2019-02-04T11:53:17.418Z,10.27
2019-02-04T11:55:47.113Z,9.60
2019-02-04T11:58:16.451Z,10.40
2019-02-04T12:00:45.850Z,11.00
2019-02-04T12:03:16.286Z,9.77
2019-02-04T12:05:45.517Z,10.50
2019-02-04T12:08:16.658Z,10.00
2019-02-04T12:10:52.226Z,12.13
2019-02-04T12:13:21.562Z,10.67
2019-02-04T12:15:51.135Z,8.93
2019-02-04T12:18:20.443Z,10.77
2019-02-04T12:20:49.795Z,11.73
2019-02-04T12:23:19.914Z,10.03
2019-02-04T12:25:49.340Z,9.43
2019-02-04T12:28:18.572Z,12.27
2019-02-04T12:30:47.904Z,8.20
2019-02-04T12:33:18.086Z,8.90
2019-02-04T12:35:47.453Z,10.27
2019-02-04T12:38:17.106Z,9.17
2019-02-04T12:40:46.506Z,9.47
2019-02-04T12:43:15.830Z,9.43
2019-02-04T12:45:45.471Z,9.93
2019-02-04T12:48:14.897Z,9.93
2019-02-04T12:50:44.413Z,9.67
2019-02-04T12:53:13.957Z,10.77
2019-02-04T12:55:43.151Z,10.63
2019-02-04T12:58:12.867Z,7.93
2019-02-04T13:00:42.323Z,9.80
2019-02-04T13:03:11.743Z,9.00
2019-02-04T13:05:52.435Z,10.17
2019-02-04T13:08:21.856Z,8.00
2019-02-04T13:10:51.136Z,9.33
2019-02-04T13:13:22.336Z,8.87
2019-02-04T13:15:51.736Z,9.27
2019-02-04T13:18:21.151Z,6.97
2019-02-04T13:20:50.525Z,8.40
2019-02-04T13:23:19.956Z,8.50
2019-02-04T13:25:49.219Z,8.60
2019-02-04T13:28:22.515Z,9.20
2019-02-04T13:31:10.904Z,7.27
2019-02-04T13:33:41.564Z,9.80
2019-02-04T13:36:10.901Z,7.57
2019-02-04T13:38:40.195Z,6.30
2019-02-04T13:41:10.319Z,8.27
2019-02-04T13:43:40.575Z,7.87
2019-02-04T13:46:09.980Z,7.17
2019-02-04T13:48:39.300Z,7.53
2019-02-04T13:51:30.359Z,7.20
2019-02-04T13:53:58.782Z,7.47
2019-02-04T13:56:28.263Z,6.97
2019-02-04T13:58:57.539Z,8.17
2019-02-04T14:01:27.003Z,5.77
2019-02-04T14:03:56.299Z,6.67
2019-02-04T14:06:25.997Z,5.53
2019-02-04T14:08:55.429Z,6.03
2019-02-04T14:11:24.750Z,6.20
2019-02-04T14:13:53.997Z,7.47
2019-02-04T14:16:23.429Z,8.90
2019-02-04T14:18:52.776Z,6.20
2019-02-04T14:21:22.619Z,7.80
2019-02-04T14:23:51.969Z,6.07
2019-02-04T14:26:21.380Z,5.73
2019-02-04T14:28:50.809Z,6.40
2019-02-04T14:31:20.185Z,6.97
2019-02-04T14:33:49.553Z,7.30
2019-02-04T14:36:19.032Z,6.37
2019-02-04T14:38:48.411Z,7.23
2019-02-04T14:41:36.762Z,6.33
2019-02-04T14:44:15.713Z,7.30
2019-02-04T14:47:00.215Z,6.37
2019-02-04T14:50:25.933Z,7.47
2019-02-04T14:53:32.892Z,7.37
2019-02-04T14:56:49.230Z,6.53
2019-02-04T14:59:32.303Z,7.07
2019-02-04T15:02:45.840Z,7.60
2019-02-04T15:05:56.362Z,7.57
2019-02-04T15:09:15.431Z,6.73
2019-02-04T15:12:40.610Z,5.53
2019-02-04T15:15:28.113Z,6.60
2019-02-04T15:18:25.873Z,7.03
2019-02-04T15:21:43.220Z,7.30
2019-02-04T15:24:39.902Z,5.90
2019-02-04T15:27:55.767Z,6.70
2019-02-04T15:30:35.486Z,7.70
2019-02-04T15:33:43.214Z,7.20
2019-02-04T15:36:44.070Z,7.23
2019-02-04T15:39:55.848Z,7.33
2019-02-04T15:43:03.818Z,6.93
2019-02-04T15:46:16.432Z,6.40
2019-02-04T15:49:22.931Z,6.83
2019-02-04T15:51:56.739Z,6.53
2019-02-04T15:54:26.639Z,5.47
2019-02-04T15:56:56.512Z,7.10
2019-02-04T15:59:26.220Z,5.80
2019-02-04T16:01:56.194Z,6.57
2019-02-04T16:04:34.272Z,6.77
2019-02-04T16:07:05.391Z,7.57
2019-02-04T16:09:35.159Z,6.60
2019-02-04T16:12:04.918Z,6.40
2019-02-04T16:14:34.910Z,6.93
2019-02-04T16:17:07.058Z,6.17
2019-02-04T16:19:37.182Z,6.50
2019-02-04T16:22:06.911Z,6.50
2019-02-04T16:24:36.909Z,7.37
2019-02-04T16:27:06.680Z,7.20
2019-02-04T16:29:36.592Z,8.27
2019-02-04T16:32:06.945Z,7.43
2019-02-04T16:34:36.594Z,4.90
2019-02-04T16:37:06.224Z,6.47
2019-02-04T16:39:35.990Z,6.43
2019-02-04T16:42:06.345Z,6.43
2019-02-04T16:44:36.172Z,7.00
2019-02-04T16:47:06.372Z,6.53
2019-02-04T16:49:36.170Z,5.47
2019-02-04T16:52:05.804Z,6.60
2019-02-04T16:54:35.358Z,7.80
2019-02-04T16:57:05.574Z,6.83
2019-02-04T16:59:35.232Z,7.20
2019-02-04T17:02:05.006Z,6.43
2019-02-04T17:04:34.562Z,5.83
2019-02-04T17:07:05.166Z,6.60
2019-02-04T17:09:35.040Z,4.77
2019-02-04T17:12:05.242Z,6.73
2019-02-04T17:14:34.981Z,5.50
2019-02-04T17:17:04.847Z,5.60
2019-02-04T17:19:34.570Z,6.47
2019-02-04T17:22:04.152Z,5.60
2019-02-04T17:24:33.822Z,5.80
2019-02-04T17:27:03.684Z,5.00
2019-02-04T17:29:34.040Z,4.37
2019-02-04T17:32:03.999Z,5.87
2019-02-04T17:34:33.673Z,6.40
2019-02-04T17:37:03.652Z,3.63
2019-02-04T17:39:34.817Z,6.17
2019-02-04T17:42:04.652Z,6.07
2019-02-04T17:44:35.231Z,5.73
2019-02-04T17:47:05.065Z,6.07
2019-02-04T17:49:34.758Z,6.27
2019-02-04T17:52:04.405Z,5.33
2019-02-04T17:54:34.150Z,5.20
2019-02-04T17:57:06.015Z,5.87
2019-02-04T17:59:35.240Z,7.20
2019-02-04T18:02:05.084Z,6.17
2019-02-04T18:04:34.860Z,5.57
2019-02-04T18:07:06.059Z,6.27
2019-02-04T18:09:35.667Z,6.87
2019-02-04T18:12:05.954Z,5.63
2019-02-04T18:14:35.524Z,4.37
2019-02-04T18:17:05.276Z,6.53
2019-02-04T18:19:35.076Z,5.23
2019-02-04T18:22:05.721Z,4.53
2019-02-04T18:24:35.906Z,5.80
2019-02-04T18:27:05.994Z,4.80
2019-02-04T18:29:35.775Z,5.90
2019-02-04T18:32:05.716Z,6.13
2019-02-04T18:34:35.765Z,4.93
2019-02-04T18:37:05.470Z,5.13
2019-02-04T18:39:37.605Z,5.23
2019-02-04T18:42:07.577Z,4.60
2019-02-04T18:44:37.514Z,5.10
2019-02-04T18:47:07.378Z,5.90
2019-02-04T18:49:36.977Z,6.87
2019-02-04T18:52:06.868Z,5.57
2019-02-04T18:54:36.938Z,5.10
2019-02-04T18:57:06.850Z,4.90
2019-02-04T18:59:37.108Z,4.73
2019-02-04T19:02:06.987Z,5.20
2019-02-04T19:04:36.760Z,3.97
2019-02-04T19:07:06.648Z,4.47
2019-02-04T19:09:36.353Z,6.07
2019-02-04T19:12:06.335Z,4.20
2019-02-04T19:14:36.457Z,4.03
2019-02-04T19:17:08.778Z,4.17
2019-02-04T19:19:38.589Z,6.17
2019-02-04T19:22:08.332Z,2.43
2019-02-04T19:24:38.078Z,5.10
2019-02-04T19:27:07.739Z,4.30
2019-02-04T19:29:37.530Z,4.20
2019-02-04T19:32:07.821Z,3.60
2019-02-04T19:34:37.616Z,4.57
2019-02-04T19:37:07.376Z,5.00
2019-02-04T19:39:37.111Z,4.13
2019-02-04T19:42:07.573Z,4.73
2019-02-04T19:44:38.876Z,4.63
2019-02-04T19:47:08.682Z,5.07
2019-02-04T19:49:39.161Z,4.37
2019-02-04T19:52:08.839Z,4.27
2019-02-04T19:54:39.405Z,4.23
2019-02-04T19:57:09.090Z,3.80
2019-02-04T19:59:38.771Z,4.67
2019-02-04T20:02:09.080Z,4.20
2019-02-04T20:04:38.686Z,5.13
2019-02-04T20:07:08.356Z,2.97
2019-02-04T20:09:38.094Z,4.43
2019-02-04T20:12:07.852Z,4.47
2019-02-04T20:14:37.568Z,3.70
2019-02-04T20:17:07.374Z,4.00
2019-02-04T20:19:37.050Z,3.80
2019-02-04T20:22:06.969Z,3.20
2019-02-04T20:24:37.204Z,4.40
2019-02-04T20:27:06.888Z,4.40
2019-02-04T20:29:36.894Z,3.87
2019-02-04T20:32:06.761Z,4.10
2019-02-04T20:34:36.533Z,3.30
2019-02-04T20:37:06.480Z,5.00
2019-02-04T20:39:36.437Z,3.50
2019-02-04T20:42:06.395Z,5.33
2019-02-04T20:44:36.154Z,3.20
2019-02-04T20:47:05.890Z,4.77
2019-02-04T20:49:35.706Z,5.53
2019-02-04T20:52:05.503Z,4.83
2019-02-04T20:54:44.772Z,5.80
2019-02-04T20:57:06.939Z,5.63
2019-02-04T20:59:36.552Z,2.53
2019-02-04T21:02:06.364Z,4.97
2019-02-04T21:04:36.235Z,6.00
2019-02-04T21:07:06.510Z,6.10
2019-02-04T21:09:36.310Z,5.67
2019-02-04T21:12:06.029Z,3.77
2019-02-04T21:14:35.804Z,4.70
2019-02-04T21:17:05.572Z,5.50
2019-02-04T21:19:35.304Z,4.60
2019-02-04T21:22:05.313Z,6.27
2019-02-04T21:24:35.173Z,5.47
2019-02-04T21:27:04.759Z,4.70
2019-02-04T21:29:34.979Z,4.90
2019-02-04T21:32:04.758Z,5.10
2019-02-04T21:34:34.490Z,5.03
2019-02-04T21:37:04.634Z,5.77
2019-02-04T21:39:34.139Z,4.63
2019-02-04T21:42:03.925Z,4.70
2019-02-04T21:44:33.523Z,5.00
2019-02-04T21:47:03.139Z,5.60
2019-02-04T21:49:32.751Z,6.23
2019-02-04T21:52:02.477Z,5.87
2019-02-04T21:54:34.954Z,4.27
2019-02-04T21:57:04.452Z,4.40
2019-02-04T21:59:34.067Z,6.27
2019-02-04T22:02:03.709Z,5.00
2019-02-04T22:04:34.109Z,5.30
2019-02-04T22:07:03.716Z,6.63
2019-02-04T22:09:33.296Z,5.00
2019-02-04T22:12:02.858Z,5.13
2019-02-04T22:14:32.346Z,4.60
2019-02-04T22:17:01.780Z,4.10
2019-02-04T22:19:31.264Z,4.07
2019-02-04T22:22:00.805Z,6.10
2019-02-04T22:24:30.137Z,4.53
2019-02-04T22:26:59.390Z,4.67
2019-02-04T22:29:30.961Z,5.47
2019-02-04T22:31:59.730Z,5.03
2019-02-04T22:34:29.484Z,5.60
2019-02-04T22:36:58.796Z,4.47
2019-02-04T22:39:27.990Z,5.03
2019-02-04T22:41:57.279Z,4.67
2019-02-04T22:44:26.548Z,5.27
2019-02-04T22:46:55.778Z,3.87
2019-02-04T22:49:25.074Z,5.30
2019-02-04T22:51:54.559Z,3.40
2019-02-04T22:54:23.887Z,5.47
2019-02-04T22:56:53.302Z,5.27
2019-02-04T22:59:22.710Z,4.57
2019-02-04T23:01:57.043Z,4.57
2019-02-04T23:04:26.627Z,4.50
2019-02-04T23:06:56.042Z,4.63
2019-02-04T23:09:25.301Z,4.43
2019-02-04T23:11:57.878Z,5.20
2019-02-04T23:14:27.179Z,5.30
2019-02-04T23:16:56.508Z,4.33
2019-02-04T23:19:25.848Z,5.37
2019-02-04T23:21:55.038Z,4.90
2019-02-04T23:24:24.418Z,6.07
2019-02-04T23:26:53.720Z,5.60
2019-02-04T23:29:23.157Z,5.47
2019-02-04T23:31:52.471Z,7.23
2019-02-04T23:34:21.892Z,6.00
2019-02-04T23:36:51.202Z,3.97
2019-02-04T23:39:20.523Z,6.60
2019-02-04T23:41:49.891Z,6.13
2019-02-04T23:44:19.350Z,4.83
2019-02-04T23:46:49.248Z,7.40
2019-02-04T23:49:18.712Z,5.57
2019-02-04T23:51:48.097Z,6.47
2019-02-04T23:54:17.524Z,6.70
2019-02-04T23:56:46.900Z,4.53
2019-02-04T23:59:16.290Z,6.50
